Time;durP1;ratioP1;P1;durP2;ratioP2;P2;SDS_P1;SDS_P2;PMS_P1;PMS_P2;Temp;Humidity;BMP_temperature;BMP_pressure;BME280_temperature;BME280_humidity;BME280_pressure;Samples;Min_cycle;Max_cycle;Signal;HPM_P1;HPM_P2
2022/09/06 00:01:00;;;;;;;5.35;3.00;;;;;;;;;;5008269;28;88850;-68
2022/09/06 00:03:27;;;;;;;6.35;3.05;;;;;;;;;;5004492;28;87691;-65
2022/09/06 00:05:53;;;;;;;6.28;3.38;;;;;;;;;;5007385;28;88179;-66
2022/09/06 00:08:20;;;;;;;3.63;3.28;;;;;;;;;;5001353;28;89037;-66
2022/09/06 00:10:46;;;;;;;9.57;2.75;;;;;;;;;;4990165;28;90723;-66
2022/09/06 00:13:12;;;;;;;3.97;3.20;;;;;;;;;;4996107;28;89428;-66
2022/09/06 00:15:39;;;;;;;5.18;3.40;;;;;;;;;;4997509;28;88427;-68
2022/09/06 00:18:06;;;;;;;6.63;3.55;;;;;;;;;;5001809;28;88758;-66
2022/09/06 00:20:33;;;;;;;3.92;3.50;;;;;;;;;;5008152;28;88657;-66
2022/09/06 00:23:02;;;;;;;7.00;3.58;;;;;;;;;;5002140;28;88705;-66
2022/09/06 00:25:29;;;;;;;4.18;3.20;;;;;;;;;;5010488;28;89222;-66
2022/09/06 00:27:56;;;;;;;7.50;3.42;;;;;;;;;;5000963;28;89411;-66
2022/09/06 00:30:23;;;;;;;8.82;3.13;;;;;;;;;;4994686;28;88389;-68
2022/09/06 00:32:50;;;;;;;6.55;3.88;;;;;;;;;;4989938;28;88930;-66
2022/09/06 00:35:17;;;;;;;5.20;3.38;;;;;;;;;;5004008;28;88660;-66
2022/09/06 00:37:43;;;;;;;7.40;3.78;;;;;;;;;;5003102;28;89674;-66
2022/09/06 00:40:10;;;;;;;7.25;3.83;;;;;;;;;;5006755;28;88806;-66
2022/09/06 00:42:37;;;;;;;5.80;4.13;;;;;;;;;;4996456;28;88068;-67
2022/09/06 00:45:04;;;;;;;6.95;4.05;;;;;;;;;;4991952;28;88868;-66
2022/09/06 00:47:32;;;;;;;9.43;3.85;;;;;;;;;;5001973;28;89123;-66
2022/09/06 00:49:58;;;;;;;8.25;4.28;;;;;;;;;;4997889;28;88171;-66
2022/09/06 00:52:26;;;;;;;8.57;3.95;;;;;;;;;;4995957;28;88532;-66
2022/09/06 00:54:52;;;;;;;9.68;4.70;;;;;;;;;;5013374;28;89321;-65
2022/09/06 00:57:19;;;;;;;4.75;3.92;;;;;;;;;;5012366;28;88996;-66
2022/09/06 00:59:46;;;;;;;6.40;4.68;;;;;;;;;;4994765;28;89738;-65
2022/09/06 01:02:12;;;;;;;6.97;4.47;;;;;;;;;;5002277;28;89490;-66
2022/09/06 01:04:40;;;;;;;6.40;4.38;;;;;;;;;;4996785;28;88722;-66
2022/09/06 01:07:16;;;;;;;5.72;4.22;;;;;;;;;;4988659;28;88966;-66
2022/09/06 01:10:00;;;;;;;6.80;4.43;;;;;;;;;;5001494;28;88015;-65
2022/09/06 01:12:32;;;;;;;6.75;4.50;;;;;;;;;;4990068;28;89259;-66
2022/09/06 01:15:13;;;;;;;9.35;4.40;;;;;;;;;;4995633;28;88835;-68
2022/09/06 01:17:43;;;;;;;5.43;4.25;;;;;;;;;;5019959;28;87203;-66
2022/09/06 01:20:25;;;;;;;6.73;5.03;;;;;;;;;;5001098;28;89043;-66
2022/09/06 01:23:10;;;;;;;6.00;4.82;;;;;;;;;;4980839;28;88929;-66
2022/09/06 01:26:02;;;;;;;8.10;4.75;;;;;;;;;;4994609;28;88819;-66
2022/09/06 01:28:36;;;;;;;6.30;4.68;;;;;;;;;;4995066;28;88674;-66
2022/09/06 01:31:21;;;;;;;9.55;4.80;;;;;;;;;;5006246;28;89650;-65
2022/09/06 01:33:57;;;;;;;8.90;4.28;;;;;;;;;;4993598;28;88791;-65
2022/09/06 01:36:25;;;;;;;4.90;4.22;;;;;;;;;;5007407;28;89341;-65
2022/09/06 01:38:51;;;;;;;7.00;4.25;;;;;;;;;;4999334;28;88414;-66
2022/09/06 01:41:18;;;;;;;5.22;4.30;;;;;;;;;;4991682;28;90628;-67
2022/09/06 01:43:46;;;;;;;9.68;4.10;;;;;;;;;;4988444;28;87940;-66
2022/09/06 01:46:18;;;;;;;4.47;3.95;;;;;;;;;;4996026;28;88595;-65
2022/09/06 01:48:50;;;;;;;10.98;4.50;;;;;;;;;;5004375;28;88950;-65
2022/09/06 01:51:25;;;;;;;7.22;4.40;;;;;;;;;;5012507;28;88849;-66
2022/09/06 01:54:04;;;;;;;9.70;4.53;;;;;;;;;;4996922;28;89167;-66
2022/09/06 01:56:42;;;;;;;6.93;4.50;;;;;;;;;;5008376;28;88901;-66
2022/09/06 01:59:14;;;;;;;6.78;4.03;;;;;;;;;;5000513;28;88083;-66
2022/09/06 02:01:56;;;;;;;5.82;4.05;;;;;;;;;;4997977;28;88961;-66
2022/09/06 02:04:27;;;;;;;4.45;3.78;;;;;;;;;;4998101;28;89009;-66
2022/09/06 02:06:58;;;;;;;3.67;3.38;;;;;;;;;;4997726;28;88881;-66
2022/09/06 02:09:27;;;;;;;5.32;3.95;;;;;;;;;;5004830;28;88504;-66
2022/09/06 02:11:55;;;;;;;6.18;3.17;;;;;;;;;;4996809;28;88115;-66
2022/09/06 02:14:25;;;;;;;4.30;3.25;;;;;;;;;;5017451;28;89970;-66
2022/09/06 02:16:52;;;;;;;9.27;3.80;;;;;;;;;;4994151;28;89708;-66
2022/09/06 02:19:21;;;;;;;8.18;3.88;;;;;;;;;;4997786;28;88077;-65
2022/09/06 02:21:50;;;;;;;8.93;4.00;;;;;;;;;;4998782;28;88814;-65
2022/09/06 02:24:20;;;;;;;5.05;3.53;;;;;;;;;;5001904;28;89556;-65
2022/09/06 02:26:46;;;;;;;6.65;4.13;;;;;;;;;;5015616;28;88613;-66
2022/09/06 02:29:13;;;;;;;7.45;3.83;;;;;;;;;;5001372;28;88750;-65
2022/09/06 02:31:51;;;;;;;8.85;3.78;;;;;;;;;;4996894;28;88140;-66
2022/09/06 02:34:18;;;;;;;6.40;3.88;;;;;;;;;;5012082;28;88570;-66
2022/09/06 02:36:45;;;;;;;4.43;4.00;;;;;;;;;;5012330;28;88753;-66
2022/09/06 02:39:11;;;;;;;8.27;3.90;;;;;;;;;;5002465;28;89427;-66
2022/09/06 02:41:39;;;;;;;9.15;4.60;;;;;;;;;;5001207;28;88768;-66
2022/09/06 02:44:06;;;;;;;10.18;4.60;;;;;;;;;;5003653;28;88878;-66
2022/09/06 02:46:32;;;;;;;8.23;4.25;;;;;;;;;;5002906;28;89831;-65
2022/09/06 02:48:58;;;;;;;11.77;5.28;;;;;;;;;;4998663;28;89008;-66
2022/09/06 02:51:25;;;;;;;8.90;4.63;;;;;;;;;;5011727;28;89137;-66
2022/09/06 02:53:51;;;;;;;7.28;4.88;;;;;;;;;;5001774;28;88488;-66
2022/09/06 02:56:17;;;;;;;11.80;5.45;;;;;;;;;;4984707;28;88824;-66
2022/09/06 02:58:44;;;;;;;7.63;5.10;;;;;;;;;;4990952;28;87867;-66
2022/09/06 03:01:11;;;;;;;6.28;5.47;;;;;;;;;;4995245;28;88096;-67
2022/09/06 03:03:37;;;;;;;10.88;5.43;;;;;;;;;;4993036;28;89450;-66
2022/09/06 03:06:04;;;;;;;13.95;5.65;;;;;;;;;;4991521;28;88760;-66
2022/09/06 03:08:32;;;;;;;9.10;5.65;;;;;;;;;;5001153;28;89566;-67
2022/09/06 03:10:59;;;;;;;12.43;5.45;;;;;;;;;;5002632;28;88560;-66
2022/09/06 03:13:25;;;;;;;9.45;5.13;;;;;;;;;;5006388;28;88696;-68
2022/09/06 03:15:52;;;;;;;9.00;5.90;;;;;;;;;;4999235;28;91168;-66
2022/09/06 03:18:19;;;;;;;6.65;5.40;;;;;;;;;;4998339;28;88102;-66
2022/09/06 03:20:47;;;;;;;7.38;5.47;;;;;;;;;;4998667;28;88635;-66
2022/09/06 03:23:13;;;;;;;10.40;5.80;;;;;;;;;;5015028;28;88056;-66
2022/09/06 03:25:41;;;;;;;7.28;5.47;;;;;;;;;;5005212;28;88146;-66
2022/09/06 03:28:07;;;;;;;10.07;5.65;;;;;;;;;;5005885;28;88932;-66
2022/09/06 03:30:33;;;;;;;8.20;5.60;;;;;;;;;;5002885;28;88890;-66
2022/09/06 03:32:59;;;;;;;12.52;5.63;;;;;;;;;;4993397;28;89866;-65
2022/09/06 03:35:28;;;;;;;7.05;5.30;;;;;;;;;;4989965;28;89544;-65
2022/09/06 03:37:54;;;;;;;6.22;5.13;;;;;;;;;;5002280;28;88105;-66
2022/09/06 03:40:20;;;;;;;7.80;5.78;;;;;;;;;;4994852;28;89586;-65
2022/09/06 03:42:47;;;;;;;8.40;5.72;;;;;;;;;;4992053;28;89151;-65
2022/09/06 03:45:13;;;;;;;9.18;5.88;;;;;;;;;;4995605;28;88571;-66
2022/09/06 03:47:39;;;;;;;13.63;5.53;;;;;;;;;;4999086;28;88679;-65
2022/09/06 03:50:06;;;;;;;7.43;5.53;;;;;;;;;;5007834;28;88876;-65
2022/09/06 03:52:32;;;;;;;10.27;4.97;;;;;;;;;;4995956;28;89667;-65
2022/09/06 03:54:59;;;;;;;7.38;5.38;;;;;;;;;;4994142;28;88897;-65
2022/09/06 03:57:25;;;;;;;14.98;5.97;;;;;;;;;;5009585;28;88100;-66
2022/09/06 03:59:51;;;;;;;8.82;6.05;;;;;;;;;;4981468;28;88750;-66
2022/09/06 04:02:17;;;;;;;7.45;5.63;;;;;;;;;;4994757;28;88827;-65
2022/09/06 04:04:44;;;;;;;6.65;5.00;;;;;;;;;;4978610;28;88474;-65
2022/09/06 04:07:10;;;;;;;7.47;5.95;;;;;;;;;;4996102;28;88800;-65
2022/09/06 04:09:36;;;;;;;6.85;5.95;;;;;;;;;;4994125;28;89158;-65
2022/09/06 04:12:03;;;;;;;11.95;6.00;;;;;;;;;;4999368;28;88144;-65
2022/09/06 04:14:29;;;;;;;10.05;5.43;;;;;;;;;;4996268;28;90488;-65
2022/09/06 04:16:56;;;;;;;6.82;5.68;;;;;;;;;;4996020;28;88114;-66
2022/09/06 04:19:22;;;;;;;7.28;5.60;;;;;;;;;;5008174;28;88792;-65
2022/09/06 04:21:48;;;;;;;9.75;5.28;;;;;;;;;;5002332;28;91630;-65
2022/09/06 04:24:15;;;;;;;8.02;5.80;;;;;;;;;;4995338;28;88114;-66
2022/09/06 04:26:41;;;;;;;6.45;5.85;;;;;;;;;;4994585;28;89519;-65
2022/09/06 04:29:07;;;;;;;10.43;5.93;;;;;;;;;;4997405;28;88819;-65
2022/09/06 04:31:34;;;;;;;10.35;5.53;;;;;;;;;;5013954;28;88028;-65
2022/09/06 04:34:00;;;;;;;9.88;5.38;;;;;;;;;;4999578;28;88888;-65
2022/09/06 04:36:26;;;;;;;6.82;5.20;;;;;;;;;;5002431;28;88232;-66
2022/09/06 04:38:53;;;;;;;9.52;5.32;;;;;;;;;;5000594;28;88090;-65
2022/09/06 04:41:19;;;;;;;6.18;5.15;;;;;;;;;;4996539;28;88811;-65
2022/09/06 04:43:46;;;;;;;7.35;5.15;;;;;;;;;;5007663;28;88861;-66
2022/09/06 04:46:28;;;;;;;6.18;5.57;;;;;;;;;;4992705;28;91076;-67
2022/09/06 04:48:55;;;;;;;7.45;5.30;;;;;;;;;;4990267;28;89407;-66
2022/09/06 04:51:23;;;;;;;8.10;5.28;;;;;;;;;;5009266;28;88090;-67
2022/09/06 04:53:49;;;;;;;8.85;5.38;;;;;;;;;;5012644;28;88870;-67
2022/09/06 04:56:16;;;;;;;7.45;5.40;;;;;;;;;;5017727;28;88814;-67
2022/09/06 04:58:44;;;;;;;11.32;5.80;;;;;;;;;;4998731;28;88666;-66
2022/09/06 05:01:11;;;;;;;8.10;5.30;;;;;;;;;;4995518;28;88116;-66
2022/09/06 05:03:37;;;;;;;8.13;6.00;;;;;;;;;;5001528;28;88035;-66
2022/09/06 05:06:04;;;;;;;14.50;5.68;;;;;;;;;;5002326;28;88860;-66
2022/09/06 05:08:31;;;;;;;7.90;5.85;;;;;;;;;;4995073;28;89939;-66
2022/09/06 05:10:57;;;;;;;9.32;5.88;;;;;;;;;;4989786;28;89216;-66
2022/09/06 05:13:23;;;;;;;6.60;5.47;;;;;;;;;;4996570;28;89128;-66
2022/09/06 05:15:50;;;;;;;7.00;5.85;;;;;;;;;;4995822;28;89999;-66
2022/09/06 05:18:16;;;;;;;6.78;5.70;;;;;;;;;;5008151;28;89597;-65
2022/09/06 05:20:42;;;;;;;6.45;5.85;;;;;;;;;;4994258;28;89192;-65
2022/09/06 05:23:09;;;;;;;9.70;5.82;;;;;;;;;;4993991;28;88010;-66
2022/09/06 05:25:35;;;;;;;10.88;6.07;;;;;;;;;;4986469;28;88573;-66
2022/09/06 05:28:01;;;;;;;9.50;6.53;;;;;;;;;;5002325;28;88868;-66
2022/09/06 05:30:27;;;;;;;6.90;6.00;;;;;;;;;;5007539;28;88254;-66
2022/09/06 05:32:54;;;;;;;7.30;6.45;;;;;;;;;;4992632;28;88793;-66
2022/09/06 05:35:20;;;;;;;12.05;6.80;;;;;;;;;;4999886;28;88727;-66
2022/09/06 05:37:46;;;;;;;7.55;6.43;;;;;;;;;;4999563;28;88708;-66
2022/09/06 05:40:13;;;;;;;12.60;6.30;;;;;;;;;;4997681;28;89189;-66
2022/09/06 05:42:39;;;;;;;9.15;6.15;;;;;;;;;;4997102;28;88193;-66
2022/09/06 05:45:06;;;;;;;10.60;6.70;;;;;;;;;;4982664;28;88855;-66
2022/09/06 05:47:34;;;;;;;8.55;6.93;;;;;;;;;;4998590;28;89256;-66
2022/09/06 05:50:01;;;;;;;13.88;6.40;;;;;;;;;;4999047;28;87731;-66
2022/09/06 05:52:27;;;;;;;10.05;6.57;;;;;;;;;;4999134;28;88981;-66
2022/09/06 05:54:54;;;;;;;10.05;7.28;;;;;;;;;;4999265;28;89046;-66
2022/09/06 05:57:20;;;;;;;8.30;6.40;;;;;;;;;;4999213;28;88832;-66
2022/09/06 05:59:46;;;;;;;7.55;6.65;;;;;;;;;;5002813;28;89818;-66
2022/09/06 06:02:13;;;;;;;9.05;6.88;;;;;;;;;;4994151;28;88959;-66
2022/09/06 06:04:39;;;;;;;13.05;7.45;;;;;;;;;;4989360;28;88805;-66
2022/09/06 06:07:05;;;;;;;8.27;6.95;;;;;;;;;;4986957;28;89489;-68
2022/09/06 06:09:32;;;;;;;11.30;7.80;;;;;;;;;;4983700;28;87991;-66
2022/09/06 06:11:58;;;;;;;10.52;6.72;;;;;;;;;;4991830;28;88573;-66
2022/09/06 06:14:24;;;;;;;13.63;7.45;;;;;;;;;;4995609;28;87648;-66
2022/09/06 06:16:50;;;;;;;9.15;7.18;;;;;;;;;;4990578;28;88073;-66
2022/09/06 06:19:17;;;;;;;12.60;7.72;;;;;;;;;;4997187;28;88913;-66
2022/09/06 06:21:43;;;;;;;8.82;7.20;;;;;;;;;;5000978;28;89760;-66
2022/09/06 06:24:09;;;;;;;9.00;7.03;;;;;;;;;;4998151;28;90111;-66
2022/09/06 06:26:36;;;;;;;11.88;7.72;;;;;;;;;;4986356;28;89228;-66
2022/09/06 06:29:02;;;;;;;9.43;7.80;;;;;;;;;;5004405;28;89023;-66
2022/09/06 06:31:29;;;;;;;9.73;7.57;;;;;;;;;;5016142;28;88558;-66
2022/09/06 06:33:57;;;;;;;20.90;9.88;;;;;;;;;;5011276;28;88222;-67
2022/09/06 06:36:24;;;;;;;16.77;9.20;;;;;;;;;;4997272;28;88212;-67
2022/09/06 06:38:52;;;;;;;17.05;9.25;;;;;;;;;;4999021;28;90611;-66
2022/09/06 06:41:20;;;;;;;19.73;9.32;;;;;;;;;;5011085;28;89170;-65
2022/09/06 06:43:46;;;;;;;16.85;10.25;;;;;;;;;;5011116;28;88603;-65
2022/09/06 06:46:16;;;;;;;16.35;10.98;;;;;;;;;;4988532;28;89574;-65
2022/09/06 06:48:43;;;;;;;;;;;;;;;;;;4998927;28;90000;-65
2022/09/06 06:51:10;;;;;;;18.60;10.52;;;;;;;;;;4997727;28;118749;-66
2022/09/06 06:53:36;;;;;;;18.27;9.65;;;;;;;;;;4995069;28;89256;-67
2022/09/06 06:56:17;;;;;;;19.00;10.82;;;;;;;;;;4998030;28;90142;-66
2022/09/06 06:58:43;;;;;;;13.13;10.45;;;;;;;;;;4998425;28;89749;-65
2022/09/06 07:01:10;;;;;;;12.55;10.02;;;;;;;;;;4994866;28;89113;-66
2022/09/06 07:03:37;;;;;;;14.20;10.70;;;;;;;;;;4997916;28;90309;-65
2022/09/06 07:06:03;;;;;;;15.98;10.38;;;;;;;;;;5000942;28;89770;-66
2022/09/06 07:08:33;;;;;;;20.77;11.23;;;;;;;;;;4995841;28;91417;-65
2022/09/06 07:10:59;;;;;;;18.63;10.40;;;;;;;;;;4994751;28;90203;-66
2022/09/06 07:13:26;;;;;;;20.08;10.80;;;;;;;;;;4996864;28;88902;-65
2022/09/06 07:16:04;;;;;;;14.10;11.05;;;;;;;;;;4994809;28;90438;-65
2022/09/06 07:18:31;;;;;;;23.40;11.48;;;;;;;;;;4997354;28;89680;-65
2022/09/06 07:20:57;;;;;;;18.83;10.55;;;;;;;;;;4998108;28;88889;-65
2022/09/06 07:23:43;;;;;;;14.55;10.93;;;;;;;;;;4994820;28;89698;-65
2022/09/06 07:26:30;;;;;;;16.20;11.10;;;;;;;;;;4977882;28;89197;-66
2022/09/06 07:28:58;;;;;;;16.58;10.88;;;;;;;;;;4979591;28;89025;-65
2022/09/06 07:31:24;;;;;;;16.85;11.27;;;;;;;;;;4982804;28;89653;-65
2022/09/06 07:34:10;;;;;;;12.00;10.80;;;;;;;;;;4997912;28;89199;-65
2022/09/06 07:36:37;;;;;;;14.68;10.73;;;;;;;;;;4997292;28;91080;-67
2022/09/06 07:39:03;;;;;;;18.73;10.30;;;;;;;;;;4997563;28;89486;-66
2022/09/06 07:41:29;;;;;;;14.05;11.23;;;;;;;;;;5017862;28;89575;-66
2022/09/06 07:43:55;;;;;;;17.58;11.02;;;;;;;;;;5009708;28;89895;-66
2022/09/06 07:46:22;;;;;;;15.10;11.20;;;;;;;;;;4998518;28;89386;-66
2022/09/06 07:48:48;;;;;;;18.88;11.45;;;;;;;;;;5008771;28;89327;-65
2022/09/06 07:51:16;;;;;;;14.30;10.38;;;;;;;;;;4983178;28;90297;-66
2022/09/06 07:53:46;;;;;;;16.70;11.02;;;;;;;;;;4997428;28;89149;-66
2022/09/06 07:56:12;;;;;;;18.02;10.32;;;;;;;;;;4999620;28;89861;-66
2022/09/06 07:58:39;;;;;;;13.95;9.98;;;;;;;;;;4996503;28;90443;-66
2022/09/06 08:01:29;;;;;;;16.15;10.75;;;;;;;;;;4994943;28;89557;-66
2022/09/06 08:04:05;;;;;;;19.33;10.40;;;;;;;;;;4979840;28;88863;-66
2022/09/06 08:06:33;;;;;;;10.57;9.35;;;;;;;;;;4977404;28;89597;-66
2022/09/06 08:09:19;;;;;;;17.42;10.75;;;;;;;;;;4978021;28;89175;-66
2022/09/06 08:11:46;;;;;;;17.20;9.85;;;;;;;;;;4989976;28;89072;-66
2022/09/06 08:14:12;;;;;;;12.70;9.38;;;;;;;;;;4992362;28;88644;-66
2022/09/06 08:16:39;;;;;;;18.80;10.82;;;;;;;;;;4999073;28;88041;-66
2022/09/06 08:19:09;;;;;;;12.77;9.63;;;;;;;;;;5009550;28;89526;-67
2022/09/06 08:21:36;;;;;;;14.65;10.02;;;;;;;;;;4992310;28;89257;-66
2022/09/06 08:24:03;;;;;;;16.00;10.80;;;;;;;;;;4997142;28;88982;-67
2022/09/06 08:26:30;;;;;;;14.13;9.90;;;;;;;;;;4997231;28;89426;-66
2022/09/06 08:29:01;;;;;;;11.80;9.55;;;;;;;;;;4997080;28;89066;-67
2022/09/06 08:31:28;;;;;;;17.42;10.20;;;;;;;;;;4998620;28;88147;-66
2022/09/06 08:33:55;;;;;;;17.40;10.40;;;;;;;;;;4999770;28;89536;-66
2022/09/06 08:36:22;;;;;;;18.95;10.02;;;;;;;;;;4996250;28;89120;-66
2022/09/06 08:38:48;;;;;;;13.65;9.70;;;;;;;;;;4997517;28;89882;-66
2022/09/06 08:41:24;;;;;;;8.68;7.78;;;;;;;;;;4994975;28;93402;-66
2022/09/06 08:43:55;;;;;;;13.55;7.90;;;;;;;;;;4994153;28;92166;-66
2022/09/06 08:46:46;;;;;;;17.75;8.77;;;;;;;;;;5007842;28;92536;-67
2022/09/06 08:49:13;;;;;;;13.45;7.75;;;;;;;;;;4994935;28;93419;-66
2022/09/06 08:51:48;;;;;;;11.98;8.02;;;;;;;;;;4993160;28;94763;-66
2022/09/06 08:54:19;;;;;;;15.30;7.40;;;;;;;;;;4993440;28;96025;-66
2022/09/06 08:56:54;;;;;;;14.50;7.60;;;;;;;;;;4996531;28;93417;-66
2022/09/06 08:59:21;;;;;;;12.23;7.57;;;;;;;;;;4995037;28;93047;-66
2022/09/06 09:01:53;;;;;;;13.40;6.80;;;;;;;;;;4994408;28;93393;-66
2022/09/06 09:04:22;;;;;;;11.00;7.28;;;;;;;;;;4994911;28;92859;-66
2022/09/06 09:06:51;;;;;;;7.60;6.82;;;;;;;;;;4994720;28;93205;-66
2022/09/06 09:09:18;;;;;;;16.25;7.13;;;;;;;;;;4993790;28;92733;-67
2022/09/06 09:11:46;;;;;;;10.63;6.72;;;;;;;;;;4995055;28;92565;-66
2022/09/06 09:14:26;;;;;;;11.43;6.70;;;;;;;;;;4994677;28;93643;-67
2022/09/06 09:16:54;;;;;;;8.48;6.20;;;;;;;;;;4989347;28;95894;-66
2022/09/06 09:19:20;;;;;;;9.15;6.40;;;;;;;;;;4997956;28;92387;-67
2022/09/06 09:21:47;;;;;;;7.03;6.25;;;;;;;;;;5009550;28;93501;-67
2022/09/06 09:24:14;;;;;;;9.90;6.40;;;;;;;;;;4994607;28;92363;-67
2022/09/06 09:26:48;;;;;;;13.93;7.13;;;;;;;;;;4994783;28;93586;-66
2022/09/06 09:29:15;;;;;;;9.77;6.45;;;;;;;;;;4993317;28;94436;-66
2022/09/06 09:31:49;;;;;;;12.88;7.80;;;;;;;;;;4994560;28;92498;-66
2022/09/06 09:34:32;;;;;;;13.27;6.68;;;;;;;;;;4994855;28;93125;-66
2022/09/06 09:37:16;;;;;;;14.98;7.45;;;;;;;;;;4994344;28;93634;-67
2022/09/06 09:40:03;;;;;;;9.10;7.18;;;;;;;;;;4994398;28;92652;-66
2022/09/06 09:42:32;;;;;;;9.52;7.05;;;;;;;;;;4996319;28;94776;-66
2022/09/06 09:44:59;;;;;;;11.25;7.82;;;;;;;;;;4994682;28;92429;-66
2022/09/06 09:47:30;;;;;;;9.88;6.63;;;;;;;;;;4993159;28;93201;-66
2022/09/06 09:49:56;;;;;;;11.65;6.30;;;;;;;;;;4993817;28;93384;-66
2022/09/06 09:52:28;;;;;;;15.32;7.70;;;;;;;;;;4994348;28;92379;-66
2022/09/06 09:54:59;;;;;;;16.35;7.20;;;;;;;;;;4993973;28;92962;-67
2022/09/06 09:57:28;;;;;;;9.93;7.18;;;;;;;;;;4993818;28;93220;-67
2022/09/06 09:59:59;;;;;;;8.23;7.00;;;;;;;;;;4994469;28;91654;-66
2022/09/06 10:02:34;;;;;;;21.00;6.82;;;;;;;;;;4997193;28;93558;-67
2022/09/06 10:05:02;;;;;;;12.80;6.30;;;;;;;;;;4994204;28;92352;-67
2022/09/06 10:07:30;;;;;;;8.43;6.22;;;;;;;;;;4991244;28;94693;-67
2022/09/06 10:10:09;;;;;;;17.52;5.03;;;;;;;;;;4993894;28;93599;-67
2022/09/06 10:12:39;;;;;;;11.25;4.45;;;;;;;;;;4994238;28;92427;-67
2022/09/06 10:15:06;;;;;;;14.30;4.85;;;;;;;;;;5011849;28;93315;-66
2022/09/06 10:17:49;;;;;;;5.78;4.05;;;;;;;;;;5012739;28;93899;-66
2022/09/06 10:20:15;;;;;;;10.50;4.68;;;;;;;;;;4996163;28;92563;-67
2022/09/06 10:23:00;;;;;;;8.57;4.72;;;;;;;;;;4997231;28;93016;-67
2022/09/06 10:25:45;;;;;;;6.47;3.90;;;;;;;;;;5000725;28;92751;-67
2022/09/06 10:28:26;;;;;;;5.20;3.80;;;;;;;;;;5012052;28;92320;-67
2022/09/06 10:30:58;;;;;;;11.68;4.53;;;;;;;;;;4997272;28;93399;-67
2022/09/06 10:33:38;;;;;;;10.13;3.30;;;;;;;;;;4995572;28;94945;-67
2022/09/06 10:36:04;;;;;;;4.93;3.03;;;;;;;;;;4996961;28;95316;-67
2022/09/06 10:38:42;;;;;;;29.92;2.90;;;;;;;;;;4996489;28;93459;-67
2022/09/06 10:41:22;;;;;;;5.40;3.05;;;;;;;;;;4997163;28;92557;-67
2022/09/06 10:43:54;;;;;;;11.30;2.80;;;;;;;;;;4995931;28;93145;-68
2022/09/06 10:46:23;;;;;;;6.70;2.70;;;;;;;;;;4996805;28;93434;-68
2022/09/06 10:48:51;;;;;;;2.60;2.10;;;;;;;;;;5000139;28;92447;-67
2022/09/06 10:51:55;;;;;;;7.78;3.08;;;;;;;;;;4997068;28;92218;-67
2022/09/06 10:54:23;;;;;;;7.20;2.80;;;;;;;;;;4993619;28;92459;-67
2022/09/06 10:56:55;;;;;;;10.23;3.17;;;;;;;;;;4994391;28;92483;-68
2022/09/06 10:59:35;;;;;;;4.78;2.80;;;;;;;;;;4992217;28;95872;-68
2022/09/06 11:02:09;;;;;;;4.25;2.58;;;;;;;;;;4994409;28;92446;-67
2022/09/06 11:04:37;;;;;;;3.88;2.30;;;;;;;;;;4993984;28;93609;-68
2022/09/06 11:07:27;;;;;;;9.93;2.40;;;;;;;;;;4994226;28;92951;-68
2022/09/06 11:09:54;;;;;;;5.45;2.70;;;;;;;;;;4994133;28;92454;-68
2022/09/06 11:12:23;;;;;;;6.20;2.42;;;;;;;;;;4997040;28;93011;-68
2022/09/06 11:14:49;;;;;;;6.30;2.85;;;;;;;;;;4993995;28;92538;-68
2022/09/06 11:17:19;;;;;;;6.78;2.58;;;;;;;;;;4994606;28;93172;-68
2022/09/06 11:19:48;;;;;;;5.40;2.40;;;;;;;;;;4993599;28;93437;-68
2022/09/06 11:22:17;;;;;;;9.70;2.42;;;;;;;;;;4993870;28;92558;-68
2022/09/06 11:24:59;;;;;;;5.75;2.28;;;;;;;;;;4988928;28;94817;-68
2022/09/06 11:27:39;;;;;;;4.78;1.95;;;;;;;;;;4976345;28;93891;-68
2022/09/06 11:30:05;;;;;;;9.07;2.28;;;;;;;;;;4976558;28;92351;-68
2022/09/06 11:32:32;;;;;;;2.65;2.22;;;;;;;;;;4976322;28;93067;-69
2022/09/06 11:35:00;;;;;;;6.28;2.15;;;;;;;;;;4979318;28;94775;-68
2022/09/06 11:37:29;;;;;;;6.25;2.13;;;;;;;;;;4976116;28;93004;-68
2022/09/06 11:40:14;;;;;;;3.92;2.40;;;;;;;;;;4975903;28;93683;-68
2022/09/06 11:42:58;;;;;;;6.43;2.22;;;;;;;;;;4975985;28;92145;-68
2022/09/06 11:45:42;;;;;;;4.90;2.58;;;;;;;;;;4980703;28;92778;-68
2022/09/06 11:48:25;;;;;;;3.97;1.98;;;;;;;;;;4994690;28;93174;-68
2022/09/06 11:51:00;;;;;;;6.07;2.00;;;;;;;;;;4992643;28;94882;-68
2022/09/06 11:53:30;;;;;;;7.55;2.20;;;;;;;;;;4994971;28;95700;-68
2022/09/06 11:55:57;;;;;;;7.90;2.60;;;;;;;;;;4995550;28;93945;-68
2022/09/06 11:58:27;;;;;;;7.05;2.83;;;;;;;;;;4998836;28;92709;-68
2022/09/06 12:01:29;;;;;;;5.47;2.60;;;;;;;;;;4995729;28;93447;-68
2022/09/06 12:03:59;;;;;;;7.93;2.88;;;;;;;;;;4992969;28;92503;-69
2022/09/06 12:06:34;;;;;;;4.10;2.80;;;;;;;;;;4993118;28;92973;-69
2022/09/06 12:09:00;;;;;;;7.35;3.17;;;;;;;;;;4993704;28;92528;-68
2022/09/06 12:11:35;;;;;;;8.20;2.58;;;;;;;;;;4992775;28;92563;-68
2022/09/06 12:14:06;;;;;;;6.80;2.83;;;;;;;;;;4993290;28;93026;-68
2022/09/06 12:16:56;;;;;;;7.22;2.90;;;;;;;;;;4974697;28;96513;-68
2022/09/06 12:19:40;;;;;;;11.75;3.13;;;;;;;;;;4979439;28;92624;-69
2022/09/06 12:22:25;;;;;;;8.10;3.83;;;;;;;;;;4993091;28;94349;-68
2022/09/06 12:24:51;;;;;;;7.68;3.60;;;;;;;;;;4992910;28;92623;-68
2022/09/06 12:27:38;;;;;;;8.93;3.47;;;;;;;;;;4992885;28;93183;-68
2022/09/06 12:30:08;;;;;;;8.98;3.80;;;;;;;;;;4992867;28;93448;-68
2022/09/06 12:32:36;;;;;;;9.13;3.60;;;;;;;;;;4992731;28;92454;-68
2022/09/06 12:35:04;;;;;;;9.50;3.83;;;;;;;;;;4976766;28;93063;-68
2022/09/06 12:37:58;;;;;;;8.20;3.85;;;;;;;;;;4972767;28;93237;-68
2022/09/06 12:40:29;;;;;;;7.90;3.47;;;;;;;;;;4975523;28;92489;-68
2022/09/06 12:42:55;;;;;;;5.90;3.35;;;;;;;;;;4991697;28;94865;-68
2022/09/06 12:45:22;;;;;;;6.43;3.50;;;;;;;;;;4979328;28;92491;-69
2022/09/06 12:48:21;;;;;;;9.52;3.47;;;;;;;;;;4995094;28;93270;-69
2022/09/06 12:50:59;;;;;;;12.23;3.63;;;;;;;;;;4993746;28;93700;-69
2022/09/06 12:53:26;;;;;;;16.08;3.70;;;;;;;;;;4994192;28;92317;-68
2022/09/06 12:56:06;;;;;;;10.02;3.00;;;;;;;;;;4994801;28;93198;-69
2022/09/06 12:58:34;;;;;;;9.48;3.95;;;;;;;;;;4994656;28;93134;-68
2022/09/06 13:01:09;;;;;;;7.40;3.15;;;;;;;;;;4995385;28;91734;-69
2022/09/06 13:03:36;;;;;;;11.75;4.03;;;;;;;;;;4994566;28;92456;-69
2022/09/06 13:06:04;;;;;;;8.60;4.13;;;;;;;;;;4996145;28;93543;-68
2022/09/06 13:08:40;;;;;;;9.40;4.03;;;;;;;;;;4993090;28;94819;-68
2022/09/06 13:11:09;;;;;;;9.23;4.57;;;;;;;;;;4994349;28;93082;-69
2022/09/06 13:13:36;;;;;;;;;;;;;;;;;;4994953;28;92446;-68
2022/09/06 13:16:02;;;;;;;5.13;3.17;;;;;;;;;;4995688;28;123476;-68
2022/09/06 13:18:35;;;;;;;5.45;2.67;;;;;;;;;;4994528;28;92377;-69
2022/09/06 13:21:03;;;;;;;22.30;3.90;;;;;;;;;;4994560;28;92458;-68
2022/09/06 13:23:38;;;;;;;7.43;4.03;;;;;;;;;;4994603;28;93356;-68
2022/09/06 13:26:04;;;;;;;9.65;3.50;;;;;;;;;;4994850;28;92881;-69
2022/09/06 13:28:32;;;;;;;13.32;4.22;;;;;;;;;;4997709;28;92307;-69
2022/09/06 13:31:04;;;;;;;9.55;3.95;;;;;;;;;;4994422;28;93217;-68
2022/09/06 13:33:31;;;;;;;6.03;4.40;;;;;;;;;;4991724;28;94908;-68
2022/09/06 13:36:07;;;;;;;11.10;3.70;;;;;;;;;;4992893;28;95725;-68
2022/09/06 13:38:36;;;;;;;7.68;3.55;;;;;;;;;;4994460;28;93405;-69
2022/09/06 13:41:04;;;;;;;16.75;4.57;;;;;;;;;;4994506;28;92442;-68
2022/09/06 13:43:41;;;;;;;11.65;3.78;;;;;;;;;;4994561;28;93497;-68
2022/09/06 13:46:09;;;;;;;9.25;3.15;;;;;;;;;;4994593;28;93439;-68
2022/09/06 13:48:38;;;;;;;5.70;3.33;;;;;;;;;;4994839;28;92468;-68
2022/09/06 13:51:05;;;;;;;7.03;2.65;;;;;;;;;;5016435;28;93119;-68
2022/09/06 13:53:32;;;;;;;9.35;2.65;;;;;;;;;;4996862;28;92519;-68
2022/09/06 13:55:58;;;;;;;8.27;2.70;;;;;;;;;;4997444;28;93008;-68
2022/09/06 13:58:25;;;;;;;6.13;2.58;;;;;;;;;;4995610;28;94797;-69
2022/09/06 14:00:54;;;;;;;7.07;2.50;;;;;;;;;;4997558;28;92451;-69
2022/09/06 14:03:21;;;;;;;;;;;;;;;;;;4997942;28;93490;-68
2022/09/06 14:05:47;;;;;;;8.48;2.33;;;;;;;;;;4996788;28;123966;-68
2022/09/06 14:08:13;;;;;;;4.10;2.25;;;;;;;;;;4998025;28;92507;-68
2022/09/06 14:10:40;;;;;;;9.05;2.40;;;;;;;;;;5000494;28;93283;-68
2022/09/06 14:13:06;;;;;;;2.78;1.58;;;;;;;;;;4995982;28;92417;-68
2022/09/06 14:15:33;;;;;;;5.63;1.95;;;;;;;;;;4998263;28;93238;-69
2022/09/06 14:17:59;;;;;;;5.30;2.25;;;;;;;;;;4997183;28;93487;-69
2022/09/06 14:20:25;;;;;;;4.82;1.70;;;;;;;;;;4995982;28;92480;-69
2022/09/06 14:22:52;;;;;;;6.63;1.90;;;;;;;;;;4995338;28;94872;-68
2022/09/06 14:25:18;;;;;;;4.10;1.30;;;;;;;;;;5012272;28;92441;-68
2022/09/06 14:27:47;;;;;;;5.05;2.00;;;;;;;;;;4997043;28;92513;-68
2022/09/06 14:30:13;;;;;;;5.88;1.67;;;;;;;;;;4997111;28;92998;-68
2022/09/06 14:32:40;;;;;;;1.35;1.17;;;;;;;;;;4998656;28;93616;-69
2022/09/06 14:35:06;;;;;;;6.43;1.77;;;;;;;;;;4996013;28;94248;-68
2022/09/06 14:37:33;;;;;;;3.03;1.48;;;;;;;;;;4995127;28;93232;-68
2022/09/06 14:39:59;;;;;;;2.60;1.52;;;;;;;;;;4997643;28;91668;-68
2022/09/06 14:42:27;;;;;;;5.97;1.95;;;;;;;;;;4997277;28;94487;-69
2022/09/06 14:44:53;;;;;;;6.20;1.55;;;;;;;;;;4997035;28;93902;-68
2022/09/06 14:47:19;;;;;;;4.32;2.17;;;;;;;;;;4994160;28;94866;-68
2022/09/06 14:49:46;;;;;;;7.70;1.83;;;;;;;;;;4996861;28;95662;-68
2022/09/06 14:52:12;;;;;;;5.18;2.00;;;;;;;;;;4995408;28;94529;-70
2022/09/06 14:54:39;;;;;;;5.53;2.00;;;;;;;;;;4998471;28;92574;-68